AICD6F VABB-VAAH
Flight info
| Callsign | AICD6F |
|---|---|
| Flight time | 0h 50m |
| Altitude | 29000 |
| Route | ANOLI2A ISRIS G208 APANO APANO1A |
| Aircraft | A21N/M-SDE2E3FGHIRWXY/LB1 |
Departure
| Time | 2026-04-26 14:09 |
|---|---|
| Airport | Chhatrapati Shivaji Maharaj International Airport (VABB) |
Arrival
| Time | 2026-04-26 14:59 |
|---|---|
| Airport | Sardar Vallabh Patel International Airport (VAAH) |
| Time | Latitude | Longitude | Altitude | Speed | Heading |
|---|---|---|---|---|---|
| 2026-04-26 13:48 | 19.09164 | 72.85454 | 49 ft | 0 kts | 359° |
| 2026-04-26 13:56 | 19.09150 | 72.85454 | 49 ft | 2 kts | 360° |
| 2026-04-26 13:56 | 19.09134 | 72.85454 | 49 ft | 2 kts | 360° |
| 2026-04-26 13:57 | 19.09118 | 72.85454 | 49 ft | 2 kts | 358° |
| 2026-04-26 13:57 | 19.09105 | 72.85456 | 49 ft | 2 kts | 326° |
| 2026-04-26 13:57 | 19.09098 | 72.85465 | 49 ft | 1 kts | 286° |
| 2026-04-26 13:57 | 19.09098 | 72.85480 | 49 ft | 2 kts | 269° |
| 2026-04-26 13:58 | 19.09098 | 72.85496 | 49 ft | 2 kts | 269° |
| 2026-04-26 13:58 | 19.09098 | 72.85498 | 49 ft | 0 kts | 269° |
| 2026-04-26 14:02 | 19.09098 | 72.85495 | 49 ft | 1 kts | 269° |
| 2026-04-26 14:02 | 19.09097 | 72.85477 | 49 ft | 4 kts | 269° |
| 2026-04-26 14:02 | 19.09097 | 72.85444 | 49 ft | 6 kts | 269° |
| 2026-04-26 14:02 | 19.09076 | 72.85407 | 49 ft | 7 kts | 205° |
| 2026-04-26 14:03 | 19.09027 | 72.85432 | 49 ft | 11 kts | 104° |
| 2026-04-26 14:03 | 19.09025 | 72.85527 | 49 ft | 14 kts | 89° |
| 2026-04-26 14:03 | 19.09027 | 72.85636 | 49 ft | 16 kts | 89° |
| 2026-04-26 14:03 | 19.09029 | 72.85760 | 49 ft | 18 kts | 89° |
| 2026-04-26 14:04 | 19.09032 | 72.85895 | 49 ft | 12 kts | 89° |
| 2026-04-26 14:04 | 19.09033 | 72.85986 | 49 ft | 13 kts | 89° |
| 2026-04-26 14:04 | 19.09034 | 72.86091 | 49 ft | 15 kts | 89° |
| 2026-04-26 14:04 | 19.09036 | 72.86212 | 49 ft | 17 kts | 89° |
| 2026-04-26 14:05 | 19.09038 | 72.86346 | 49 ft | 19 kts | 89° |
| 2026-04-26 14:05 | 19.09041 | 72.86494 | 49 ft | 21 kts | 89° |
| 2026-04-26 14:05 | 19.09044 | 72.86655 | 49 ft | 23 kts | 89° |
| 2026-04-26 14:05 | 19.09047 | 72.86828 | 49 ft | 24 kts | 94° |
| 2026-04-26 14:06 | 19.09047 | 72.87012 | 49 ft | 26 kts | 89° |
| 2026-04-26 14:06 | 19.09051 | 72.87207 | 49 ft | 27 kts | 89° |
| 2026-04-26 14:06 | 19.09055 | 72.87364 | 49 ft | 19 kts | 90° |
| 2026-04-26 14:06 | 19.09027 | 72.87454 | 49 ft | 8 kts | 177° |
| 2026-04-26 14:07 | 19.08967 | 72.87448 | 49 ft | 10 kts | 183° |
| 2026-04-26 14:07 | 19.08893 | 72.87442 | 49 ft | 8 kts | 204° |
| 2026-04-26 14:07 | 19.08880 | 72.87395 | 49 ft | 8 kts | 269° |
| 2026-04-26 14:07 | 19.08880 | 72.87379 | 49 ft | 1 kts | 269° |
| 2026-04-26 14:08 | 19.08880 | 72.87369 | 49 ft | 3 kts | 269° |
| 2026-04-26 14:08 | 19.08877 | 72.87211 | 49 ft | 57 kts | 269° |
| 2026-04-26 14:08 | 19.08862 | 72.86477 | 49 ft | 140 kts | 270° |
| 2026-04-26 14:08 | 19.08856 | 72.85258 | 86 ft | 184 kts | 269° |
| 2026-04-26 14:09 | 19.08842 | 72.84332 | 425 ft | 188 kts | 269° |
| 2026-04-26 14:09 | 19.08776 | 72.82516 | 1145 ft | 188 kts | 268° |
| 2026-04-26 14:09 | 19.08720 | 72.81117 | 1689 ft | 194 kts | 267° |
| 2026-04-26 14:09 | 19.08623 | 72.79673 | 2192 ft | 200 kts | 265° |
| 2026-04-26 14:10 | 19.08454 | 72.78163 | 2654 ft | 210 kts | 262° |
| 2026-04-26 14:10 | 19.08314 | 72.77158 | 3157 ft | 207 kts | 263° |
| 2026-04-26 14:10 | 19.08470 | 72.75678 | 3812 ft | 205 kts | 289° |
| 2026-04-26 14:10 | 19.08907 | 72.74945 | 4105 ft | 206 kts | 308° |
| 2026-04-26 14:11 | 19.10029 | 72.74174 | 4585 ft | 210 kts | 339° |
| 2026-04-26 14:12 | 19.11426 | 72.73915 | 5368 ft | 202 kts | 349° |
| 2026-04-26 14:12 | 19.11678 | 72.73872 | 5485 ft | 203 kts | 348° |
| 2026-04-26 14:12 | 19.13111 | 72.73807 | 6203 ft | 215 kts | 359° |
| 2026-04-26 14:12 | 19.14669 | 72.74011 | 6985 ft | 234 kts | 2° |
| 2026-04-26 14:13 | 19.18051 | 72.74320 | 8514 ft | 249 kts | 358° |
| 2026-04-26 14:13 | 19.19776 | 72.74360 | 9166 ft | 255 kts | 355° |
| 2026-04-26 14:13 | 19.21566 | 72.74344 | 9822 ft | 257 kts | 354° |
| 2026-04-26 14:14 | 19.23360 | 72.74288 | 10473 ft | 260 kts | 353° |
| 2026-04-26 14:14 | 19.25188 | 72.74206 | 11131 ft | 262 kts | 352° |
| 2026-04-26 14:14 | 19.27040 | 72.74111 | 11790 ft | 265 kts | 353° |
| 2026-04-26 14:14 | 19.28901 | 72.74131 | 12442 ft | 270 kts | 357° |
| 2026-04-26 14:15 | 19.30801 | 72.74269 | 13101 ft | 273 kts | 0° |
| 2026-04-26 14:15 | 19.32691 | 72.74469 | 13749 ft | 277 kts | 1° |
| 2026-04-26 14:15 | 19.34632 | 72.74712 | 14408 ft | 280 kts | 2° |
| 2026-04-26 14:15 | 19.36576 | 72.74975 | 15061 ft | 282 kts | 2° |
| 2026-04-26 14:16 | 19.38540 | 72.75255 | 15716 ft | 285 kts | 3° |
| 2026-04-26 14:16 | 19.40519 | 72.75545 | 16368 ft | 288 kts | 3° |
| 2026-04-26 14:16 | 19.42512 | 72.75841 | 17020 ft | 291 kts | 3° |
| 2026-04-26 14:16 | 19.44531 | 72.76145 | 17673 ft | 294 kts | 3° |
| 2026-04-26 14:17 | 19.46570 | 72.76454 | 18326 ft | 297 kts | 3° |
| 2026-04-26 14:17 | 19.48628 | 72.76767 | 18979 ft | 300 kts | 3° |
| 2026-04-26 14:17 | 19.50707 | 72.77085 | 19632 ft | 303 kts | 3° |
| 2026-04-26 14:17 | 19.52806 | 72.77406 | 20284 ft | 306 kts | 3° |
| 2026-04-26 14:18 | 19.54928 | 72.77731 | 20938 ft | 309 kts | 3° |
| 2026-04-26 14:18 | 19.57071 | 72.78060 | 21591 ft | 312 kts | 4° |
| 2026-04-26 14:18 | 19.59232 | 72.78392 | 22243 ft | 315 kts | 4° |
| 2026-04-26 14:18 | 19.61411 | 72.78727 | 22889 ft | 318 kts | 4° |
| 2026-04-26 14:19 | 19.63619 | 72.79067 | 23506 ft | 321 kts | 4° |
| 2026-04-26 14:19 | 19.65834 | 72.79408 | 24109 ft | 323 kts | 4° |
| 2026-04-26 14:19 | 19.68050 | 72.79749 | 24707 ft | 325 kts | 4° |
| 2026-04-26 14:19 | 19.70294 | 72.80096 | 25309 ft | 325 kts | 4° |
| 2026-04-26 14:20 | 19.72516 | 72.80440 | 25906 ft | 324 kts | 4° |
| 2026-04-26 14:20 | 19.74748 | 72.80787 | 26507 ft | 322 kts | 4° |
| 2026-04-26 14:20 | 19.76967 | 72.81131 | 27107 ft | 320 kts | 4° |
| 2026-04-26 14:20 | 19.79164 | 72.81473 | 27706 ft | 317 kts | 4° |
| 2026-04-26 14:21 | 19.81330 | 72.81809 | 28302 ft | 312 kts | 4° |
| 2026-04-26 14:21 | 19.83438 | 72.82137 | 28866 ft | 309 kts | 4° |
| 2026-04-26 14:21 | 19.85637 | 72.82474 | 28985 ft | 322 kts | 4° |
| 2026-04-26 14:21 | 19.87880 | 72.82813 | 29005 ft | 337 kts | 4° |
| 2026-04-26 14:22 | 19.90262 | 72.83172 | 29004 ft | 354 kts | 4° |
| 2026-04-26 14:22 | 19.92797 | 72.83554 | 29003 ft | 372 kts | 4° |
| 2026-04-26 14:22 | 19.95460 | 72.83959 | 29002 ft | 390 kts | 4° |
| 2026-04-26 14:22 | 19.98201 | 72.84378 | 29001 ft | 410 kts | 5° |
| 2026-04-26 14:23 | 20.01074 | 72.84821 | 29002 ft | 430 kts | 5° |
| 2026-04-26 14:23 | 20.04151 | 72.85300 | 29001 ft | 448 kts | 5° |
| 2026-04-26 14:23 | 20.07252 | 72.85760 | 29000 ft | 457 kts | 4° |
| 2026-04-26 14:24 | 20.13706 | 72.86647 | 28997 ft | 467 kts | 4° |
| 2026-04-26 14:24 | 20.20192 | 72.87495 | 28996 ft | 471 kts | 4° |
| 2026-04-26 14:25 | 20.26717 | 72.88334 | 28996 ft | 473 kts | 4° |
| 2026-04-26 14:25 | 20.33189 | 72.89162 | 28996 ft | 474 kts | 4° |
| 2026-04-26 14:26 | 20.39795 | 72.90008 | 28996 ft | 474 kts | 4° |
| 2026-04-26 14:26 | 20.46357 | 72.90848 | 28996 ft | 474 kts | 4° |
| 2026-04-26 14:27 | 20.52943 | 72.91692 | 28996 ft | 479 kts | 4° |
| 2026-04-26 14:27 | 20.59607 | 72.92545 | 28996 ft | 485 kts | 4° |
| 2026-04-26 14:28 | 20.66309 | 72.93406 | 28996 ft | 489 kts | 4° |
| 2026-04-26 14:28 | 20.73076 | 72.94261 | 28996 ft | 489 kts | 3° |
| 2026-04-26 14:29 | 20.79915 | 72.94818 | 28996 ft | 489 kts | 0° |
| 2026-04-26 14:29 | 20.86754 | 72.95150 | 28996 ft | 489 kts | 359° |
| 2026-04-26 14:30 | 20.93578 | 72.95387 | 28996 ft | 489 kts | 359° |
| 2026-04-26 14:30 | 21.00371 | 72.95596 | 28996 ft | 489 kts | 359° |
| 2026-04-26 14:31 | 21.06128 | 72.95773 | 28996 ft | 489 kts | 359° |
| 2026-04-26 14:31 | 21.12876 | 72.95992 | 28996 ft | 489 kts | 359° |
| 2026-04-26 14:32 | 21.19760 | 72.96262 | 28996 ft | 489 kts | 359° |
| 2026-04-26 14:32 | 21.26552 | 72.96588 | 28996 ft | 491 kts | 360° |
| 2026-04-26 14:33 | 21.33486 | 72.96948 | 28996 ft | 491 kts | 360° |
| 2026-04-26 14:33 | 21.40348 | 72.97315 | 28996 ft | 492 kts | 360° |
| 2026-04-26 14:34 | 21.47291 | 72.97687 | 28996 ft | 492 kts | 360° |
| 2026-04-26 14:34 | 21.54140 | 72.98052 | 28996 ft | 492 kts | 359° |
| 2026-04-26 14:35 | 21.60929 | 72.97572 | 28997 ft | 487 kts | 348° |
| 2026-04-26 14:35 | 21.67543 | 72.96074 | 28997 ft | 485 kts | 343° |
| 2026-04-26 14:36 | 21.74044 | 72.94183 | 28996 ft | 484 kts | 341° |
| 2026-04-26 14:36 | 21.80515 | 72.92165 | 28996 ft | 484 kts | 341° |
| 2026-04-26 14:36 | 21.83724 | 72.91156 | 29098 ft | 467 kts | 341° |
| 2026-04-26 14:37 | 21.86781 | 72.90204 | 28826 ft | 446 kts | 341° |
| 2026-04-26 14:37 | 21.89690 | 72.89304 | 28274 ft | 431 kts | 341° |
| 2026-04-26 14:37 | 21.92557 | 72.88422 | 27693 ft | 417 kts | 341° |
| 2026-04-26 14:37 | 21.95314 | 72.87577 | 27053 ft | 411 kts | 341° |
| 2026-04-26 14:38 | 21.98008 | 72.86755 | 26426 ft | 407 kts | 341° |
| 2026-04-26 14:38 | 22.00768 | 72.85916 | 25785 ft | 402 kts | 341° |
| 2026-04-26 14:38 | 22.03436 | 72.85109 | 25162 ft | 398 kts | 341° |
| 2026-04-26 14:38 | 22.05214 | 72.84574 | 24743 ft | 395 kts | 341° |
| 2026-04-26 14:39 | 22.08727 | 72.83521 | 23906 ft | 389 kts | 341° |
| 2026-04-26 14:39 | 22.11330 | 72.82744 | 23279 ft | 385 kts | 341° |
| 2026-04-26 14:39 | 22.13861 | 72.81991 | 22663 ft | 381 kts | 341° |
| 2026-04-26 14:39 | 22.16487 | 72.81211 | 22018 ft | 378 kts | 341° |
| 2026-04-26 14:40 | 22.18999 | 72.80466 | 21395 ft | 374 kts | 341° |
| 2026-04-26 14:40 | 22.21551 | 72.79711 | 20757 ft | 371 kts | 341° |
| 2026-04-26 14:40 | 22.24013 | 72.78991 | 20136 ft | 368 kts | 341° |
| 2026-04-26 14:40 | 22.26466 | 72.78280 | 19469 ft | 361 kts | 341° |
| 2026-04-26 14:41 | 22.28907 | 72.77576 | 18722 ft | 356 kts | 341° |
| 2026-04-26 14:41 | 22.31301 | 72.76887 | 17968 ft | 352 kts | 341° |
| 2026-04-26 14:41 | 22.33676 | 72.76203 | 17210 ft | 348 kts | 341° |
| 2026-04-26 14:41 | 22.36007 | 72.75532 | 16458 ft | 344 kts | 341° |
| 2026-04-26 14:42 | 22.38311 | 72.74868 | 15706 ft | 340 kts | 341° |
| 2026-04-26 14:42 | 22.40589 | 72.74211 | 15102 ft | 333 kts | 341° |
| 2026-04-26 14:42 | 22.42752 | 72.73589 | 14573 ft | 324 kts | 341° |
| 2026-04-26 14:42 | 22.44942 | 72.72958 | 14012 ft | 316 kts | 341° |
| 2026-04-26 14:43 | 22.47022 | 72.72358 | 13468 ft | 310 kts | 341° |
| 2026-04-26 14:43 | 22.49108 | 72.71755 | 12911 ft | 304 kts | 341° |
| 2026-04-26 14:43 | 22.51178 | 72.71154 | 12349 ft | 299 kts | 341° |
| 2026-04-26 14:43 | 22.53155 | 72.70580 | 11803 ft | 295 kts | 341° |
| 2026-04-26 14:44 | 22.55149 | 72.70001 | 11245 ft | 291 kts | 341° |
| 2026-04-26 14:44 | 22.57085 | 72.69439 | 10696 ft | 287 kts | 341° |
| 2026-04-26 14:44 | 22.58983 | 72.68887 | 10152 ft | 284 kts | 341° |
| 2026-04-26 14:44 | 22.60911 | 72.68325 | 9594 ft | 282 kts | 341° |
| 2026-04-26 14:45 | 22.62776 | 72.67780 | 9050 ft | 280 kts | 341° |
| 2026-04-26 14:45 | 22.64029 | 72.67414 | 8681 ft | 278 kts | 341° |
| 2026-04-26 14:45 | 22.66521 | 72.66685 | 7944 ft | 276 kts | 341° |
| 2026-04-26 14:45 | 22.68373 | 72.66143 | 7396 ft | 274 kts | 341° |
| 2026-04-26 14:46 | 22.70193 | 72.65611 | 6979 ft | 268 kts | 341° |
| 2026-04-26 14:46 | 22.71381 | 72.65264 | 6718 ft | 265 kts | 341° |
| 2026-04-26 14:46 | 22.73137 | 72.64750 | 6344 ft | 264 kts | 341° |
| 2026-04-26 14:46 | 22.75506 | 72.64053 | 5842 ft | 263 kts | 342° |
| 2026-04-26 14:47 | 22.77266 | 72.63534 | 5466 ft | 262 kts | 342° |
| 2026-04-26 14:47 | 22.79021 | 72.63018 | 5090 ft | 261 kts | 343° |
| 2026-04-26 14:47 | 22.80782 | 72.62502 | 4758 ft | 262 kts | 344° |
| 2026-04-26 14:47 | 22.81925 | 72.62168 | 4673 ft | 254 kts | 344° |
| 2026-04-26 14:48 | 22.83611 | 72.61679 | 4543 ft | 245 kts | 344° |
| 2026-04-26 14:48 | 22.85229 | 72.61211 | 4413 ft | 236 kts | 345° |
| 2026-04-26 14:48 | 22.86802 | 72.60865 | 4259 ft | 229 kts | 356° |
| 2026-04-26 14:48 | 22.88333 | 72.61248 | 4139 ft | 222 kts | 20° |
| 2026-04-26 14:49 | 22.89624 | 72.62065 | 4043 ft | 216 kts | 33° |
| 2026-04-26 14:49 | 22.90802 | 72.63097 | 4005 ft | 208 kts | 40° |
| 2026-04-26 14:49 | 22.91845 | 72.64157 | 3998 ft | 202 kts | 43° |
| 2026-04-26 14:49 | 22.92830 | 72.65224 | 3998 ft | 199 kts | 44° |
| 2026-04-26 14:50 | 22.93806 | 72.66303 | 4001 ft | 201 kts | 44° |
| 2026-04-26 14:50 | 22.94794 | 72.67396 | 4002 ft | 204 kts | 44° |
| 2026-04-26 14:50 | 22.95803 | 72.68506 | 3998 ft | 208 kts | 44° |
| 2026-04-26 14:50 | 22.96823 | 72.69624 | 4000 ft | 209 kts | 44° |
| 2026-04-26 14:51 | 22.97813 | 72.70710 | 4021 ft | 199 kts | 44° |
| 2026-04-26 14:51 | 22.98760 | 72.71751 | 3997 ft | 189 kts | 44° |
| 2026-04-26 14:51 | 22.99657 | 72.72736 | 3991 ft | 178 kts | 44° |
| 2026-04-26 14:51 | 23.00507 | 72.73667 | 3990 ft | 169 kts | 44° |
| 2026-04-26 14:52 | 23.01350 | 72.74550 | 3992 ft | 169 kts | 40° |
| 2026-04-26 14:52 | 23.02347 | 72.75244 | 4009 ft | 172 kts | 29° |
| 2026-04-26 14:52 | 23.03402 | 72.75891 | 4006 ft | 176 kts | 28° |
| 2026-04-26 14:52 | 23.04469 | 72.76554 | 4001 ft | 176 kts | 28° |
| 2026-04-26 14:53 | 23.05534 | 72.77218 | 4000 ft | 176 kts | 28° |
| 2026-04-26 14:53 | 23.06673 | 72.77684 | 3965 ft | 177 kts | 9° |
| 2026-04-26 14:53 | 23.07908 | 72.77795 | 4025 ft | 180 kts | 7° |
| 2026-04-26 14:53 | 23.09096 | 72.78102 | 4010 ft | 181 kts | 13° |
| 2026-04-26 14:54 | 23.10336 | 72.78457 | 3999 ft | 179 kts | 14° |
| 2026-04-26 14:54 | 23.11566 | 72.78803 | 3775 ft | 186 kts | 14° |
| 2026-04-26 14:54 | 23.12831 | 72.79152 | 3461 ft | 189 kts | 14° |
| 2026-04-26 14:54 | 23.14127 | 72.79426 | 3109 ft | 190 kts | 4° |
| 2026-04-26 14:55 | 23.15347 | 72.78962 | 2761 ft | 187 kts | 327° |
| 2026-04-26 14:55 | 23.16002 | 72.77782 | 2440 ft | 186 kts | 288° |
| 2026-04-26 14:55 | 23.15949 | 72.76372 | 2224 ft | 187 kts | 264° |
| 2026-04-26 14:55 | 23.15991 | 72.74928 | 1938 ft | 193 kts | 274° |
| 2026-04-26 14:56 | 23.16026 | 72.73501 | 1820 ft | 183 kts | 268° |
| 2026-04-26 14:56 | 23.15726 | 72.72241 | 1701 ft | 169 kts | 248° |
| 2026-04-26 14:56 | 23.15033 | 72.71216 | 1718 ft | 171 kts | 230° |
| 2026-04-26 14:56 | 23.14187 | 72.70263 | 1711 ft | 174 kts | 225° |
| 2026-04-26 14:57 | 23.13488 | 72.69517 | 1702 ft | 174 kts | 224° |
| 2026-04-26 14:57 | 23.12678 | 72.68658 | 1608 ft | 178 kts | 224° |
| 2026-04-26 14:57 | 23.11798 | 72.67717 | 1415 ft | 176 kts | 224° |
| 2026-04-26 14:57 | 23.11383 | 72.67276 | 1304 ft | 175 kts | 224° |
| 2026-04-26 14:58 | 23.10483 | 72.66408 | 1037 ft | 172 kts | 221° |
| 2026-04-26 14:58 | 23.09854 | 72.65798 | 820 ft | 171 kts | 223° |
| 2026-04-26 14:58 | 23.09096 | 72.64974 | 492 ft | 167 kts | 227° |
| 2026-04-26 14:58 | 23.08309 | 72.64093 | 219 ft | 156 kts | 226° |
| 2026-04-26 14:59 | 23.07664 | 72.63391 | 201 ft | 93 kts | 225° |
| 2026-04-26 14:59 | 23.07369 | 72.63069 | 201 ft | 38 kts | 224° |
| 2026-04-26 14:59 | 23.07289 | 72.62986 | 201 ft | 6 kts | 226° |
| 2026-04-26 14:59 | 23.07275 | 72.62970 | 201 ft | 6 kts | 226° |
| 2026-04-26 15:00 | 23.07224 | 72.62914 | 201 ft | 10 kts | 224° |
| 2026-04-26 15:00 | 23.07186 | 72.62848 | 201 ft | 12 kts | 255° |
| 2026-04-26 15:00 | 23.07170 | 72.62752 | 201 ft | 14 kts | 261° |
| 2026-04-26 15:00 | 23.07148 | 72.62640 | 201 ft | 10 kts | 265° |
| 2026-04-26 15:01 | 23.07167 | 72.62603 | 201 ft | 7 kts | 315° |
| 2026-04-26 15:01 | 23.07179 | 72.62590 | 201 ft | 6 kts | 315° |
| 2026-04-26 15:01 | 23.07239 | 72.62531 | 201 ft | 14 kts | 317° |
| 2026-04-26 15:01 | 23.07298 | 72.62470 | 201 ft | 13 kts | 314° |
| 2026-04-26 15:02 | 23.07327 | 72.62438 | 201 ft | 4 kts | 315° |
| 2026-04-26 15:02 | 23.07330 | 72.62436 | 201 ft | 0 kts | 315° |